首页
METAR-TAF:

METAR-TAF

机场 :

South Wood County Airport (Alexander Field)

Wisconsin Rapids, 威斯康辛州, 美国

纬度: 44-21-33N, 经度: 089-50-13W, 海拔: 311米

当前天气观测

该预报发布于25分钟前的10:54 UTC
风速10节,风向东转东北
温度 11°C
湿度 87%
气压 1012 hPa
能見度: 8.0公里
散云层高于2200英尺
多云层高于3100英尺
阴天层高于4300英尺
小雨, 轻雾

METAR: KISW 161054Z AUTO 06010KT 5SM -RA BR SCT022 BKN031 OVC043 11/09 A2988 RMK AO2 SLP119 P0014 T01060089

时间: 06:19 (11:19 UTC)


TAF: 丢失

超过4000个机场的气象观测和天气预报(METAR&TAF报告)。

可查询的气象台以黄色和红色小点在地图上表示。

将鼠标移到小点上方,可查看气象台名称。

然后点击查看天气观测和预报。

如需切换地图:点击带黑十字的绿色按钮放大地图;点击带横线的绿色按钮缩小地图;或者点击绿色箭头查看邻近地区的地图。


METAR-TAF: